Time;durP1;ratioP1;P1;durP2;ratioP2;P2;SDS_P1;SDS_P2;PMS_P1;PMS_P2;Temp;Humidity;BMP_temperature;BMP_pressure;BME280_temperature;BME280_humidity;BME280_pressure;Samples;Min_cycle;Max_cycle;Signal;HPM_P1;HPM_P2
2021/07/01 00:02:25;;;;;;;10.55;4.80;;;;;;;;;;5109861;28;20028;-68
2021/07/01 00:04:51;;;;;;;10.05;5.60;;;;;;;;;;5110200;28;20047;-68
2021/07/01 00:07:17;;;;;;;10.70;5.80;;;;;;;;;;5110053;28;20422;-68
2021/07/01 00:09:44;;;;;;;12.57;6.47;;;;;;;;;;5109535;28;20022;-68
2021/07/01 00:12:10;;;;;;;10.52;5.38;;;;;;;;;;5109950;28;20016;-68
2021/07/01 00:14:36;;;;;;;9.77;5.70;;;;;;;;;;5109902;28;20095;-68
2021/07/01 00:17:02;;;;;;;13.25;5.68;;;;;;;;;;5125259;28;20398;-68
2021/07/01 00:19:28;;;;;;;9.93;5.47;;;;;;;;;;5109676;28;20476;-68
2021/07/01 00:21:54;;;;;;;16.70;5.20;;;;;;;;;;5109913;28;20027;-68
2021/07/01 00:24:21;;;;;;;11.98;5.65;;;;;;;;;;5109328;28;20028;-68
2021/07/01 00:26:47;;;;;;;12.18;6.00;;;;;;;;;;5109656;28;20027;-68
2021/07/01 00:29:13;;;;;;;11.38;4.85;;;;;;;;;;5109538;28;20016;-68
2021/07/01 00:31:40;;;;;;;10.43;5.30;;;;;;;;;;5124948;28;20031;-68
2021/07/01 00:34:06;;;;;;;10.70;5.60;;;;;;;;;;5109519;28;20026;-68
2021/07/01 00:37:05;;;;;;;13.10;5.50;;;;;;;;;;5110094;27;20396;-68
2021/07/01 00:39:31;;;;;;;8.57;4.97;;;;;;;;;;5110420;28;20422;-68
2021/07/01 00:41:57;;;;;;;10.50;4.88;;;;;;;;;;5110560;28;20016;-68
2021/07/01 00:44:23;;;;;;;12.75;6.15;;;;;;;;;;5110011;28;20035;-68
2021/07/01 00:46:49;;;;;;;10.32;5.03;;;;;;;;;;5110649;28;20023;-68
2021/07/01 00:49:16;;;;;;;11.43;5.88;;;;;;;;;;5110292;28;20048;-68
2021/07/01 00:51:42;;;;;;;12.70;5.82;;;;;;;;;;5109892;28;20027;-68
2021/07/01 00:54:09;;;;;;;12.02;5.78;;;;;;;;;;5110166;28;20028;-69
2021/07/01 00:56:38;;;;;;;9.88;5.28;;;;;;;;;;5110071;28;20065;-69
2021/07/01 00:59:06;;;;;;;11.85;6.60;;;;;;;;;;5109750;28;20078;-68
2021/07/01 01:01:33;;;;;;;9.43;5.18;;;;;;;;;;5108989;28;20114;-69
2021/07/01 01:03:59;;;;;;;15.18;5.53;;;;;;;;;;5110029;28;20514;-68
2021/07/01 01:06:25;;;;;;;15.00;6.13;;;;;;;;;;5109516;28;20031;-68
2021/07/01 01:08:52;;;;;;;11.05;6.13;;;;;;;;;;5109914;28;20128;-68
2021/07/01 01:11:23;;;;;;;14.80;5.38;;;;;;;;;;5109852;28;20023;-68
2021/07/01 01:13:51;;;;;;;14.93;6.35;;;;;;;;;;5109469;28;20126;-68
2021/07/01 01:16:17;;;;;;;12.30;6.10;;;;;;;;;;5109839;28;20038;-68
2021/07/01 01:18:43;;;;;;;11.23;5.38;;;;;;;;;;5109497;28;20490;-68
2021/07/01 01:21:13;;;;;;;11.88;5.95;;;;;;;;;;5109800;28;20070;-68
2021/07/01 01:23:39;;;;;;;11.32;6.07;;;;;;;;;;5109613;28;20065;-68
2021/07/01 01:26:06;;;;;;;10.95;5.45;;;;;;;;;;5109230;28;20078;-68
2021/07/01 01:28:32;;;;;;;10.73;5.38;;;;;;;;;;5108225;28;20115;-68
2021/07/01 01:30:58;;;;;;;10.05;5.70;;;;;;;;;;5109839;28;20106;-68
2021/07/01 01:33:25;;;;;;;9.30;5.30;;;;;;;;;;5109168;28;20099;-68
2021/07/01 01:35:51;;;;;;;9.77;5.82;;;;;;;;;;5109102;28;20109;-68
2021/07/01 01:38:18;;;;;;;12.02;6.15;;;;;;;;;;5109565;28;20012;-68
2021/07/01 01:42:10;;;;;;;7.40;4.57;;;;;;;;;;5069783;28;20391;-68
2021/07/01 01:46:37;;;;;;;8.93;5.63;;;;;;;;;;5110371;27;20753;-68
2021/07/01 01:49:04;;;;;;;9.38;5.25;;;;;;;;;;5110019;28;20101;-68
2021/07/01 01:51:30;;;;;;;10.88;5.55;;;;;;;;;;5110468;28;20027;-68
2021/07/01 01:53:56;;;;;;;13.43;6.20;;;;;;;;;;5108639;28;20016;-68
2021/07/01 01:56:22;;;;;;;10.43;5.85;;;;;;;;;;5110376;28;20104;-68
2021/07/01 01:58:49;;;;;;;11.90;6.30;;;;;;;;;;5109204;28;20492;-68
2021/07/01 02:01:16;;;;;;;8.82;5.50;;;;;;;;;;5109907;28;20052;-68
2021/07/01 02:07:04;;;;;;;13.18;6.43;;;;;;;;;;5110524;27;20392;-68
2021/07/01 02:09:30;;;;;;;11.80;6.03;;;;;;;;;;5110070;28;20109;-68
2021/07/01 02:11:56;;;;;;;9.23;5.40;;;;;;;;;;5110351;28;20047;-68
2021/07/01 02:18:17;;;;;;;10.48;5.47;;;;;;;;;;5110763;27;20389;-68
2021/07/01 02:20:43;;;;;;;10.57;6.40;;;;;;;;;;5109268;28;20035;-68
2021/07/01 02:23:09;;;;;;;13.77;7.57;;;;;;;;;;5108698;28;20360;-67
2021/07/01 02:25:35;;;;;;;14.80;6.25;;;;;;;;;;5110418;28;20106;-68
2021/07/01 02:28:02;;;;;;;11.93;6.18;;;;;;;;;;5110301;28;20027;-68
2021/07/01 02:30:28;;;;;;;8.50;5.13;;;;;;;;;;5109899;28;20099;-68
2021/07/01 02:32:54;;;;;;;10.63;5.18;;;;;;;;;;5109046;28;20464;-68
2021/07/01 02:35:20;;;;;;;7.82;5.07;;;;;;;;;;5110329;28;20035;-68
2021/07/01 02:37:46;;;;;;;9.65;6.10;;;;;;;;;;5109964;28;20032;-68
2021/07/01 02:40:15;;;;;;;10.23;5.88;;;;;;;;;;5110199;28;20153;-68
2021/07/01 02:42:42;;;;;;;9.55;5.93;;;;;;;;;;5108794;28;20042;-68
2021/07/01 02:46:14;;;;;;;14.38;6.72;;;;;;;;;;5110487;27;20757;-68
2021/07/01 02:48:40;;;;;;;9.25;5.45;;;;;;;;;;5109211;28;20377;-68
2021/07/01 02:51:06;;;;;;;11.38;6.18;;;;;;;;;;5110035;28;20028;-68
2021/07/01 02:53:32;;;;;;;11.18;6.00;;;;;;;;;;5110407;28;20023;-68
2021/07/01 02:55:58;;;;;;;10.38;5.82;;;;;;;;;;5110314;28;20239;-69
2021/07/01 02:58:25;;;;;;;8.75;4.95;;;;;;;;;;5110137;28;20027;-68
2021/07/01 03:00:51;;;;;;;13.50;5.60;;;;;;;;;;5110715;28;20095;-69
2021/07/01 03:03:17;;;;;;;13.07;5.93;;;;;;;;;;5110263;28;20019;-68
2021/07/01 03:05:43;;;;;;;9.20;6.18;;;;;;;;;;5109727;28;20043;-68
2021/07/01 03:08:09;;;;;;;18.77;6.60;;;;;;;;;;5110151;28;20024;-69
2021/07/01 03:10:35;;;;;;;11.00;7.20;;;;;;;;;;5110019;28;20522;-68
2021/07/01 03:13:02;;;;;;;10.77;6.10;;;;;;;;;;5109683;28;20031;-68
2021/07/01 03:15:28;;;;;;;10.25;5.57;;;;;;;;;;5110058;28;20357;-68
2021/07/01 03:17:54;;;;;;;11.65;6.22;;;;;;;;;;5110130;28;20031;-68
2021/07/01 03:20:20;;;;;;;7.88;4.72;;;;;;;;;;5109564;28;20028;-68
2021/07/01 03:22:46;;;;;;;14.25;6.28;;;;;;;;;;5110083;28;20418;-68
2021/07/01 03:25:13;;;;;;;13.48;6.40;;;;;;;;;;5109704;28;20476;-68
2021/07/01 03:27:39;;;;;;;7.95;5.15;;;;;;;;;;5109581;28;20016;-68
2021/07/01 03:30:06;;;;;;;15.98;5.22;;;;;;;;;;5109684;28;20441;-68
2021/07/01 03:32:32;;;;;;;8.88;5.65;;;;;;;;;;5109219;28;20073;-68
2021/07/01 03:34:58;;;;;;;11.30;5.43;;;;;;;;;;5109621;28;20026;-68
2021/07/01 03:38:28;;;;;;;10.63;5.30;;;;;;;;;;5070122;28;20395;-67
2021/07/01 03:41:14;;;;;;;9.57;5.25;;;;;;;;;;5110328;27;20517;-68
2021/07/01 03:43:44;;;;;;;11.07;5.53;;;;;;;;;;5110455;28;20419;-68
2021/07/01 03:46:10;;;;;;;9.25;5.75;;;;;;;;;;5110387;28;20102;-68
2021/07/01 03:48:36;;;;;;;7.28;4.72;;;;;;;;;;5110006;28;20515;-68
2021/07/01 03:51:04;;;;;;;8.85;4.70;;;;;;;;;;5109071;28;20459;-68
2021/07/01 03:53:31;;;;;;;11.57;5.20;;;;;;;;;;5109958;28;20020;-68
2021/07/01 03:55:57;;;;;;;9.75;4.55;;;;;;;;;;5110279;28;20043;-68
2021/07/01 03:58:23;;;;;;;8.55;5.47;;;;;;;;;;5110377;28;20453;-68
2021/07/01 04:00:49;;;;;;;7.95;4.97;;;;;;;;;;5109825;28;20028;-68
2021/07/01 04:07:33;;;;;;;9.13;5.50;;;;;;;;;;5110060;27;20389;-68
2021/07/01 04:10:07;;;;;;;9.57;6.38;;;;;;;;;;5109118;28;20476;-68
2021/07/01 04:12:34;;;;;;;14.50;6.13;;;;;;;;;;5110527;28;20012;-68
2021/07/01 04:15:00;;;;;;;12.50;6.10;;;;;;;;;;5109999;28;20514;-68
2021/07/01 04:17:26;;;;;;;10.40;5.68;;;;;;;;;;5110447;28;20059;-68
2021/07/01 04:19:52;;;;;;;11.23;5.57;;;;;;;;;;5110413;28;20405;-68
2021/07/01 04:24:11;;;;;;;11.23;6.15;;;;;;;;;;5172329;27;20670;-67
2021/07/01 04:26:38;;;;;;;8.82;5.78;;;;;;;;;;5151729;27;20025;-68
2021/07/01 04:29:04;;;;;;;13.30;7.57;;;;;;;;;;5151246;27;20068;-68
2021/07/01 04:31:31;;;;;;;12.25;6.43;;;;;;;;;;5151629;27;20434;-68
2021/07/01 04:34:28;;;;;;;13.43;6.05;;;;;;;;;;5110505;27;20878;-69
2021/07/01 04:36:54;;;;;;;11.88;5.38;;;;;;;;;;5110112;28;20468;-69
2021/07/01 04:39:20;;;;;;;10.95;5.35;;;;;;;;;;5110601;28;20091;-69
2021/07/01 04:41:47;;;;;;;9.50;4.93;;;;;;;;;;5110523;28;20031;-69
2021/07/01 04:44:13;;;;;;;10.30;5.45;;;;;;;;;;5110202;28;20494;-69
2021/07/01 04:47:49;;;;;;;10.52;5.63;;;;;;;;;;5070036;28;20396;-68
2021/07/01 04:50:16;;;;;;;10.00;4.90;;;;;;;;;;5069490;28;20079;-68
2021/07/01 04:52:42;;;;;;;10.38;5.03;;;;;;;;;;5069838;28;20025;-68
2021/07/01 04:55:08;;;;;;;8.50;4.97;;;;;;;;;;5069839;28;20082;-68
2021/07/01 04:57:34;;;;;;;9.15;5.35;;;;;;;;;;5069412;28;20358;-68
2021/07/01 05:00:01;;;;;;;8.80;4.68;;;;;;;;;;5069912;28;20052;-67
2021/07/01 05:02:27;;;;;;;8.35;5.15;;;;;;;;;;5068445;28;20520;-68
2021/07/01 05:04:53;;;;;;;7.63;4.70;;;;;;;;;;5069246;28;20036;-68
2021/07/01 05:07:19;;;;;;;10.85;5.28;;;;;;;;;;5066746;28;20036;-64
2021/07/01 05:10:14;;;;;;;10.07;5.55;;;;;;;;;;5068866;28;20423;-64
2021/07/01 05:12:41;;;;;;;8.00;4.78;;;;;;;;;;5066221;28;20026;-64
2021/07/01 05:16:30;;;;;;;12.52;5.30;;;;;;;;;;5106491;27;20313;-62
2021/07/01 05:18:59;;;;;;;9.48;5.55;;;;;;;;;;5109229;28;20083;-65
2021/07/01 05:21:26;;;;;;;9.68;4.78;;;;;;;;;;5110337;28;20016;-65
2021/07/01 05:23:52;;;;;;;7.55;4.22;;;;;;;;;;5108038;28;20035;-65
2021/07/01 05:26:18;;;;;;;10.90;4.50;;;;;;;;;;5108617;28;20047;-64
2021/07/01 05:29:24;;;;;;;8.45;4.63;;;;;;;;;;5068327;28;20424;-65
2021/07/01 05:31:50;;;;;;;10.10;4.35;;;;;;;;;;5068299;28;20029;-65
2021/07/01 05:35:05;;;;;;;7.60;4.70;;;;;;;;;;5108454;27;20896;-65
2021/07/01 05:37:31;;;;;;;10.80;4.82;;;;;;;;;;5108847;28;20085;-66
2021/07/01 05:39:57;;;;;;;9.88;4.88;;;;;;;;;;5109809;28;20492;-65
2021/07/01 05:42:23;;;;;;;9.85;5.68;;;;;;;;;;5110014;28;20016;-65
2021/07/01 05:44:49;;;;;;;9.95;5.32;;;;;;;;;;5108652;28;20016;-64
2021/07/01 05:47:15;;;;;;;9.02;5.40;;;;;;;;;;5105593;28;20024;-65
2021/07/01 05:49:42;;;;;;;10.50;5.78;;;;;;;;;;5107741;28;20052;-65
2021/07/01 05:54:38;;;;;;;10.45;5.65;;;;;;;;;;5109905;27;20913;-66
2021/07/01 05:57:05;;;;;;;11.57;5.50;;;;;;;;;;5110323;28;20152;-65
2021/07/01 05:59:32;;;;;;;9.80;5.00;;;;;;;;;;5109643;28;20024;-66
2021/07/01 06:01:58;;;;;;;12.40;5.85;;;;;;;;;;5108293;28;20474;-65
2021/07/01 06:04:25;;;;;;;10.07;4.80;;;;;;;;;;5106964;28;20027;-65
2021/07/01 06:07:40;;;;;;;9.70;5.05;;;;;;;;;;5109368;27;20438;-64
2021/07/01 06:10:06;;;;;;;10.00;4.70;;;;;;;;;;5125597;28;20032;-64
2021/07/01 06:12:54;;;;;;;10.23;5.80;;;;;;;;;;5109317;27;20312;-64
2021/07/01 06:15:21;;;;;;;13.93;6.05;;;;;;;;;;5108557;28;20035;-65
2021/07/01 06:17:48;;;;;;;10.30;5.40;;;;;;;;;;5109369;28;20024;-65
2021/07/01 06:20:14;;;;;;;10.40;5.10;;;;;;;;;;5110052;28;20020;-65
2021/07/01 06:22:42;;;;;;;10.88;4.95;;;;;;;;;;5103945;28;20028;-64
2021/07/01 06:25:08;;;;;;;9.57;5.03;;;;;;;;;;5106017;28;20532;-64
2021/07/01 06:27:38;;;;;;;9.07;4.80;;;;;;;;;;5110594;28;20027;-65
2021/07/01 06:30:10;;;;;;;15.65;5.35;;;;;;;;;;5107652;28;20047;-67
2021/07/01 06:32:47;;;;;;;10.50;4.60;;;;;;;;;;5109370;28;20028;-67
2021/07/01 06:35:14;;;;;;;6.38;4.03;;;;;;;;;;5123142;28;20136;-67
2021/07/01 06:37:41;;;;;;;8.80;4.78;;;;;;;;;;5127584;28;20019;-68
2021/07/01 06:40:11;;;;;;;7.70;4.65;;;;;;;;;;5113337;28;20490;-67
2021/07/01 06:42:42;;;;;;;9.23;4.80;;;;;;;;;;5092584;28;20472;-68
2021/07/01 06:45:09;;;;;;;9.68;4.55;;;;;;;;;;5109288;28;20028;-67
2021/07/01 06:47:35;;;;;;;10.45;4.63;;;;;;;;;;5108038;28;20019;-68
2021/07/01 06:50:05;;;;;;;8.48;4.53;;;;;;;;;;5108941;28;20034;-68
2021/07/01 06:52:32;;;;;;;9.40;4.40;;;;;;;;;;5108871;28;20071;-69
2021/07/01 06:54:59;;;;;;;11.60;5.47;;;;;;;;;;5112784;28;20030;-70
2021/07/01 06:57:26;;;;;;;10.18;5.35;;;;;;;;;;5125291;28;20119;-70
2021/07/01 06:59:52;;;;;;;8.38;4.68;;;;;;;;;;5088871;28;20024;-70
2021/07/01 07:02:19;;;;;;;6.75;3.92;;;;;;;;;;5088933;28;20048;-69
2021/07/01 07:04:46;;;;;;;10.35;4.35;;;;;;;;;;5088312;28;20165;-70
2021/07/01 07:07:12;;;;;;;9.57;5.03;;;;;;;;;;5088233;28;20036;-71
2021/07/01 07:09:39;;;;;;;11.27;4.90;;;;;;;;;;5086006;28;20028;-72
2021/07/01 07:12:05;;;;;;;12.85;4.88;;;;;;;;;;5105295;28;20100;-72
2021/07/01 07:14:32;;;;;;;14.32;4.63;;;;;;;;;;5119668;28;20040;-72
2021/07/01 07:16:58;;;;;;;12.23;5.63;;;;;;;;;;5119614;28;20391;-72
2021/07/01 07:19:27;;;;;;;9.77;4.13;;;;;;;;;;5126540;28;20020;-72
2021/07/01 07:21:53;;;;;;;10.23;4.65;;;;;;;;;;5106850;28;20090;-72
2021/07/01 07:24:21;;;;;;;9.07;5.15;;;;;;;;;;5092762;28;20020;-72
2021/07/01 07:26:52;;;;;;;9.18;4.40;;;;;;;;;;5093685;28;20024;-71
2021/07/01 07:29:19;;;;;;;10.32;5.50;;;;;;;;;;5110297;28;20016;-69
2021/07/01 07:31:45;;;;;;;9.77;5.30;;;;;;;;;;5111861;28;20047;-70
2021/07/01 07:34:12;;;;;;;11.98;4.97;;;;;;;;;;5114863;28;20034;-70
2021/07/01 07:36:38;;;;;;;8.23;4.68;;;;;;;;;;5078366;28;20032;-70
2021/07/01 07:39:06;;;;;;;10.40;4.38;;;;;;;;;;5091029;28;20047;-69
2021/07/01 07:41:32;;;;;;;6.82;3.90;;;;;;;;;;5094503;28;20083;-70
2021/07/01 07:43:58;;;;;;;12.23;4.43;;;;;;;;;;5075052;28;20047;-70
2021/07/01 07:46:25;;;;;;;7.43;4.05;;;;;;;;;;5105213;27;20379;-69
2021/07/01 07:48:52;;;;;;;14.77;5.57;;;;;;;;;;5135325;27;20505;-69
2021/07/01 07:51:21;;;;;;;10.82;4.65;;;;;;;;;;5135442;27;20415;-69
2021/07/01 07:53:48;;;;;;;10.65;5.07;;;;;;;;;;5109940;27;20036;-70
2021/07/01 07:56:16;;;;;;;13.48;4.57;;;;;;;;;;5101300;28;20024;-70
2021/07/01 07:58:44;;;;;;;12.05;4.53;;;;;;;;;;5114777;28;20383;-71
2021/07/01 08:01:11;;;;;;;14.70;5.72;;;;;;;;;;5114015;28;20051;-71
2021/07/01 08:03:38;;;;;;;11.40;4.65;;;;;;;;;;5098967;28;20107;-71
2021/07/01 08:06:05;;;;;;;11.93;4.88;;;;;;;;;;5113189;28;20379;-72
2021/07/01 08:08:32;;;;;;;10.65;5.18;;;;;;;;;;5112281;28;20409;-71
2021/07/01 08:11:03;;;;;;;9.48;4.60;;;;;;;;;;5112222;28;20056;-72
2021/07/01 08:13:29;;;;;;;14.20;5.47;;;;;;;;;;5110643;28;20049;-69
2021/07/01 08:15:56;;;;;;;11.70;5.28;;;;;;;;;;5096793;28;20020;-68
2021/07/01 08:18:30;;;;;;;10.48;4.82;;;;;;;;;;5112567;28;20487;-69
2021/07/01 08:20:56;;;;;;;10.23;4.63;;;;;;;;;;5112477;28;20022;-68
2021/07/01 08:23:22;;;;;;;11.95;5.22;;;;;;;;;;5114355;28;20090;-68
2021/07/01 08:25:49;;;;;;;8.98;4.35;;;;;;;;;;5112848;28;20035;-69
2021/07/01 08:28:22;;;;;;;6.82;4.00;;;;;;;;;;5113132;28;20027;-69
2021/07/01 08:30:49;;;;;;;10.32;4.55;;;;;;;;;;5113926;28;20024;-69
2021/07/01 08:33:19;;;;;;;11.93;4.20;;;;;;;;;;5114092;28;20028;-69
2021/07/01 08:35:49;;;;;;;10.05;4.40;;;;;;;;;;5112649;28;20031;-69
2021/07/01 08:38:16;;;;;;;8.88;3.92;;;;;;;;;;5113403;28;20027;-68
2021/07/01 08:40:45;;;;;;;13.00;4.13;;;;;;;;;;5114217;28;20383;-68
2021/07/01 08:43:12;;;;;;;10.18;4.10;;;;;;;;;;5112145;28;20384;-69
2021/07/01 08:45:38;;;;;;;8.32;4.22;;;;;;;;;;5112106;28;20042;-68
2021/07/01 08:48:06;;;;;;;13.23;3.72;;;;;;;;;;5121463;27;20153;-69
2021/07/01 08:50:33;;;;;;;16.27;4.63;;;;;;;;;;5126742;27;20030;-69
2021/07/01 08:53:04;;;;;;;9.23;3.88;;;;;;;;;;5126766;27;21002;-70
2021/07/01 08:55:31;;;;;;;15.65;4.15;;;;;;;;;;5113487;28;20020;-69
2021/07/01 08:57:58;;;;;;;17.00;4.13;;;;;;;;;;5113227;28;20042;-68
2021/07/01 09:00:25;;;;;;;19.45;5.05;;;;;;;;;;5101517;28;20495;-69
2021/07/01 09:03:03;;;;;;;15.13;4.45;;;;;;;;;;5099368;28;20036;-69
2021/07/01 09:05:30;;;;;;;11.35;4.45;;;;;;;;;;5093348;28;20119;-68
2021/07/01 09:07:59;;;;;;;12.85;4.93;;;;;;;;;;5100514;27;20528;-68
2021/07/01 09:10:27;;;;;;;11.98;4.72;;;;;;;;;;5133347;27;20015;-69
2021/07/01 09:12:57;;;;;;;18.50;4.53;;;;;;;;;;5114668;27;20042;-68
2021/07/01 09:15:24;;;;;;;8.45;3.47;;;;;;;;;;5109288;28;20106;-69
2021/07/01 09:17:52;;;;;;;9.43;3.88;;;;;;;;;;5088450;27;20095;-68
2021/07/01 09:20:27;;;;;;;13.10;4.15;;;;;;;;;;5099392;27;20106;-69
2021/07/01 09:23:00;;;;;;;11.25;4.35;;;;;;;;;;5092740;28;20016;-68
2021/07/01 09:25:29;;;;;;;10.50;4.00;;;;;;;;;;5092055;28;20026;-69
2021/07/01 09:27:56;;;;;;;14.10;4.05;;;;;;;;;;5119521;27;20080;-68
2021/07/01 09:30:29;;;;;;;17.48;4.95;;;;;;;;;;5099888;27;20034;-70
2021/07/01 09:33:04;;;;;;;21.00;4.85;;;;;;;;;;5103956;27;20050;-69
2021/07/01 09:35:37;;;;;;;11.30;3.70;;;;;;;;;;5091549;28;20055;-69
2021/07/01 09:38:04;;;;;;;11.35;4.22;;;;;;;;;;5112996;27;20027;-68
2021/07/01 09:40:37;;;;;;;14.00;4.80;;;;;;;;;;5130346;27;20034;-69
2021/07/01 09:43:06;;;;;;;15.05;3.60;;;;;;;;;;5114142;27;20379;-69
2021/07/01 09:45:33;;;;;;;9.93;3.80;;;;;;;;;;5129859;27;20027;-68
2021/07/01 09:48:07;;;;;;;12.10;4.47;;;;;;;;;;5130966;27;20019;-66
2021/07/01 09:50:44;;;;;;;12.10;4.68;;;;;;;;;;5116117;27;20020;-70
2021/07/01 09:53:17;;;;;;;16.08;5.68;;;;;;;;;;5072056;28;20047;-70
2021/07/01 09:55:53;;;;;;;14.20;3.63;;;;;;;;;;5091230;28;20072;-70
2021/07/01 09:58:31;;;;;;;16.45;5.05;;;;;;;;;;5091872;28;20059;-70
2021/07/01 10:01:01;;;;;;;15.90;4.15;;;;;;;;;;5090918;28;20020;-69
2021/07/01 10:03:27;;;;;;;18.27;4.25;;;;;;;;;;5102012;28;20012;-69
2021/07/01 10:05:54;;;;;;;16.95;4.60;;;;;;;;;;5111764;28;20602;-69
2021/07/01 10:08:20;;;;;;;16.30;4.97;;;;;;;;;;5111978;28;20020;-69
2021/07/01 10:10:48;;;;;;;14.48;4.78;;;;;;;;;;5111860;28;20051;-69
2021/07/01 10:13:14;;;;;;;16.70;4.32;;;;;;;;;;5111077;28;20016;-69
2021/07/01 10:15:42;;;;;;;14.90;4.63;;;;;;;;;;5111338;28;20054;-69
2021/07/01 10:18:11;;;;;;;9.90;3.53;;;;;;;;;;5112227;28;20361;-69
2021/07/01 10:20:39;;;;;;;11.77;4.43;;;;;;;;;;5111749;28;20468;-68
2021/07/01 10:23:18;;;;;;;14.48;3.88;;;;;;;;;;5120839;28;20451;-69
2021/07/01 10:25:45;;;;;;;14.88;4.00;;;;;;;;;;5114059;28;20506;-68
2021/07/01 10:28:13;;;;;;;9.68;4.18;;;;;;;;;;5132263;28;20068;-69
2021/07/01 10:30:41;;;;;;;11.20;3.58;;;;;;;;;;5114418;28;20029;-69
2021/07/01 10:33:21;;;;;;;17.25;4.75;;;;;;;;;;5132879;28;20015;-69
2021/07/01 10:35:48;;;;;;;15.00;4.03;;;;;;;;;;5132457;28;20461;-68
2021/07/01 10:38:14;;;;;;;11.02;4.20;;;;;;;;;;5111264;28;20103;-69
2021/07/01 10:40:44;;;;;;;14.55;3.60;;;;;;;;;;5091957;28;20089;-69
2021/07/01 10:43:13;;;;;;;10.15;4.13;;;;;;;;;;5091765;28;20456;-69
2021/07/01 10:45:51;;;;;;;12.90;3.33;;;;;;;;;;5073672;28;20476;-69
2021/07/01 10:48:18;;;;;;;12.98;4.32;;;;;;;;;;5090809;28;20027;-69
2021/07/01 10:50:45;;;;;;;17.25;4.00;;;;;;;;;;5091789;28;20664;-69
2021/07/01 10:53:32;;;;;;;21.08;4.65;;;;;;;;;;5073900;28;20032;-69
2021/07/01 10:55:59;;;;;;;22.75;5.93;;;;;;;;;;5073170;28;20127;-68
2021/07/01 10:58:25;;;;;;;23.55;6.40;;;;;;;;;;5091444;28;20165;-69
2021/07/01 11:00:52;;;;;;;17.00;4.45;;;;;;;;;;5095665;28;20361;-69
2021/07/01 11:03:28;;;;;;;14.73;4.45;;;;;;;;;;5094825;28;20357;-69
2021/07/01 11:05:58;;;;;;;18.10;4.90;;;;;;;;;;5095705;28;20032;-69
2021/07/01 11:08:32;;;;;;;15.43;3.45;;;;;;;;;;5077580;28;20020;-69
2021/07/01 11:10:59;;;;;;;11.07;3.88;;;;;;;;;;5095128;28;20100;-69
2021/07/01 11:13:27;;;;;;;15.35;3.67;;;;;;;;;;5095710;28;20028;-69
2021/07/01 11:16:06;;;;;;;16.33;3.63;;;;;;;;;;5094805;28;20095;-69
2021/07/01 11:18:37;;;;;;;13.52;3.80;;;;;;;;;;5095261;28;20031;-69
2021/07/01 11:21:11;;;;;;;18.48;3.72;;;;;;;;;;5095636;28;20528;-69
2021/07/01 11:23:38;;;;;;;15.50;4.38;;;;;;;;;;5095659;28;20024;-69
2021/07/01 11:26:21;;;;;;;12.23;3.67;;;;;;;;;;5095020;28;20016;-69
2021/07/01 11:28:47;;;;;;;11.85;4.75;;;;;;;;;;5095477;28;20024;-69
2021/07/01 11:31:13;;;;;;;19.40;4.28;;;;;;;;;;5094983;28;20476;-69
2021/07/01 11:33:39;;;;;;;14.30;4.15;;;;;;;;;;5095179;28;20046;-70
2021/07/01 11:36:16;;;;;;;11.55;4.03;;;;;;;;;;5095278;28;20028;-69
2021/07/01 11:38:44;;;;;;;10.95;3.22;;;;;;;;;;5094903;28;20042;-69
2021/07/01 11:41:11;;;;;;;15.48;3.60;;;;;;;;;;5095233;28;20016;-70
2021/07/01 11:43:38;;;;;;;15.95;4.28;;;;;;;;;;5110714;27;20033;-69
2021/07/01 11:46:05;;;;;;;13.73;3.42;;;;;;;;;;5117685;27;20020;-69
2021/07/01 11:48:31;;;;;;;16.45;4.45;;;;;;;;;;5116814;27;20023;-68
2021/07/01 11:50:59;;;;;;;12.98;4.00;;;;;;;;;;5120010;27;20111;-69
2021/07/01 11:53:26;;;;;;;18.55;4.93;;;;;;;;;;5135300;27;20023;-69
2021/07/01 11:55:55;;;;;;;13.45;3.88;;;;;;;;;;5135528;27;20022;-68
2021/07/01 11:58:21;;;;;;;17.15;4.68;;;;;;;;;;5135617;27;20430;-69
2021/07/01 12:00:47;;;;;;;21.35;5.32;;;;;;;;;;5134984;27;20019;-68
2021/07/01 12:03:14;;;;;;;24.90;4.60;;;;;;;;;;5115445;27;20045;-68
2021/07/01 12:05:41;;;;;;;17.00;3.17;;;;;;;;;;5134919;27;20054;-69
2021/07/01 12:08:08;;;;;;;11.75;2.58;;;;;;;;;;5116673;27;20023;-69
2021/07/01 12:10:34;;;;;;;29.92;4.32;;;;;;;;;;5116546;27;20023;-69
2021/07/01 12:13:00;;;;;;;11.73;3.38;;;;;;;;;;5135140;27;20044;-68
2021/07/01 12:15:27;;;;;;;18.98;4.03;;;;;;;;;;5116776;27;20375;-70
2021/07/01 12:17:58;;;;;;;15.07;3.83;;;;;;;;;;5135216;27;20019;-69
2021/07/01 12:20:47;;;;;;;10.07;3.38;;;;;;;;;;5116515;27;20118;-69
2021/07/01 12:23:14;;;;;;;13.27;3.25;;;;;;;;;;5134180;27;20027;-70
2021/07/01 12:25:41;;;;;;;14.32;3.58;;;;;;;;;;5135145;27;20360;-69
2021/07/01 12:28:07;;;;;;;13.02;3.78;;;;;;;;;;5116331;27;20023;-69
2021/07/01 12:30:55;;;;;;;8.98;3.05;;;;;;;;;;5135120;27;20023;-70
2021/07/01 12:33:30;;;;;;;14.93;3.95;;;;;;;;;;5134826;27;20383;-70
2021/07/01 12:36:06;;;;;;;10.55;2.55;;;;;;;;;;5133665;27;20020;-70
2021/07/01 12:38:33;;;;;;;12.55;2.85;;;;;;;;;;5134406;27;20027;-69
2021/07/01 12:41:00;;;;;;;9.73;3.40;;;;;;;;;;5124251;27;20482;-70
2021/07/01 12:43:51;;;;;;;11.63;2.50;;;;;;;;;;5133311;27;20012;-71
2021/07/01 12:46:36;;;;;;;19.05;3.53;;;;;;;;;;5132959;27;20156;-70
2021/07/01 12:49:02;;;;;;;8.45;2.97;;;;;;;;;;5132116;27;20558;-70
2021/07/01 12:51:47;;;;;;;11.75;3.42;;;;;;;;;;5132744;27;20545;-70
2021/07/01 12:54:16;;;;;;;20.05;3.20;;;;;;;;;;5132807;27;20582;-70
2021/07/01 12:56:43;;;;;;;9.52;3.08;;;;;;;;;;5115492;27;20026;-70
2021/07/01 12:59:09;;;;;;;13.48;2.80;;;;;;;;;;5134806;27;20054;-70
2021/07/01 13:01:36;;;;;;;14.75;2.97;;;;;;;;;;5134952;27;20023;-70
2021/07/01 13:04:02;;;;;;;10.98;3.00;;;;;;;;;;5134279;27;20027;-68
2021/07/01 13:06:28;;;;;;;8.25;1.85;;;;;;;;;;5134590;27;20016;-70
2021/07/01 13:08:54;;;;;;;10.45;2.67;;;;;;;;;;5134540;27;20023;-70
2021/07/01 13:11:20;;;;;;;14.20;3.00;;;;;;;;;;5115322;27;20130;-69
2021/07/01 13:13:56;;;;;;;18.38;2.65;;;;;;;;;;5134425;27;20023;-69
2021/07/01 13:16:23;;;;;;;11.48;2.35;;;;;;;;;;5134031;27;20472;-69
2021/07/01 13:18:49;;;;;;;5.60;1.48;;;;;;;;;;5116033;27;20029;-69
2021/07/01 13:21:15;;;;;;;9.10;1.85;;;;;;;;;;5133990;27;20068;-69
2021/07/01 13:23:41;;;;;;;12.13;2.63;;;;;;;;;;5115592;27;20027;-69
2021/07/01 13:26:11;;;;;;;5.97;1.75;;;;;;;;;;5134209;27;20029;-69
2021/07/01 13:28:38;;;;;;;11.27;2.13;;;;;;;;;;5134201;27;20055;-69
2021/07/01 13:31:04;;;;;;;9.13;2.78;;;;;;;;;;5133750;27;20030;-70
2021/07/01 13:33:30;;;;;;;15.40;2.90;;;;;;;;;;5134137;27;20417;-69
2021/07/01 13:35:57;;;;;;;12.35;2.85;;;;;;;;;;5134093;27;20019;-69
2021/07/01 13:38:24;;;;;;;9.20;2.28;;;;;;;;;;5133765;27;20023;-69
2021/07/01 13:40:56;;;;;;;9.32;1.92;;;;;;;;;;5134075;27;20445;-69
2021/07/01 13:43:22;;;;;;;;;;;;;;;;;;5134529;27;20023;-69
2021/07/01 13:45:50;;;;;;;8.55;2.33;;;;;;;;;;5133499;27;19910;-69
2021/07/01 13:48:23;;;;;;;13.65;3.05;;;;;;;;;;5133793;27;20029;-69
2021/07/01 13:50:50;;;;;;;10.88;2.70;;;;;;;;;;5133651;27;20094;-68
2021/07/01 13:53:19;;;;;;;9.43;2.50;;;;;;;;;;5114979;27;20051;-69
2021/07/01 13:55:45;;;;;;;10.05;2.30;;;;;;;;;;5133418;27;20098;-69
2021/07/01 13:58:12;;;;;;;10.40;2.63;;;;;;;;;;5133933;27;20020;-69
2021/07/01 14:00:40;;;;;;;11.15;2.90;;;;;;;;;;5133471;27;20020;-68
2021/07/01 14:03:06;;;;;;;12.23;2.35;;;;;;;;;;5133702;27;20094;-69
2021/07/01 14:05:37;;;;;;;11.13;2.03;;;;;;;;;;5133242;27;20077;-70
2021/07/01 14:08:04;;;;;;;10.50;2.55;;;;;;;;;;5133669;27;20019;-68
2021/07/01 14:10:31;;;;;;;10.30;2.22;;;;;;;;;;5133497;27;20498;-68
2021/07/01 14:12:58;;;;;;;15.02;3.63;;;;;;;;;;5114707;28;20038;-68
2021/07/01 14:15:24;;;;;;;12.73;2.50;;;;;;;;;;5115102;28;20467;-68
2021/07/01 14:17:51;;;;;;;9.07;2.17;;;;;;;;;;5133735;28;20023;-68
2021/07/01 14:20:17;;;;;;;12.10;1.92;;;;;;;;;;5133324;28;20386;-69
2021/07/01 14:22:43;;;;;;;10.68;1.90;;;;;;;;;;5133497;28;20019;-68
2021/07/01 14:25:20;;;;;;;6.32;1.90;;;;;;;;;;5133482;28;20076;-69
2021/07/01 14:27:47;;;;;;;8.95;1.98;;;;;;;;;;5133389;28;20080;-68
2021/07/01 14:30:25;;;;;;;10.52;1.88;;;;;;;;;;5133331;28;20058;-68
2021/07/01 14:32:53;;;;;;;13.00;2.45;;;;;;;;;;5134253;27;20108;-69
2021/07/01 14:35:26;;;;;;;18.08;2.97;;;;;;;;;;5137163;27;20551;-68
2021/07/01 14:38:05;;;;;;;8.23;2.20;;;;;;;;;;5137661;27;20031;-69
2021/07/01 14:40:31;;;;;;;5.90;1.80;;;;;;;;;;5137478;27;20019;-70
2021/07/01 14:43:17;;;;;;;15.40;2.25;;;;;;;;;;5136961;27;20015;-69
2021/07/01 14:45:43;;;;;;;6.25;1.75;;;;;;;;;;5118911;27;20547;-69
2021/07/01 14:48:11;;;;;;;10.27;1.80;;;;;;;;;;5136862;27;20102;-71
2021/07/01 14:50:37;;;;;;;4.80;1.77;;;;;;;;;;5137163;27;20031;-69
2021/07/01 14:53:03;;;;;;;10.75;2.47;;;;;;;;;;5118757;27;20121;-69
2021/07/01 14:55:29;;;;;;;8.60;1.75;;;;;;;;;;5136750;27;20023;-70
2021/07/01 14:57:59;;;;;;;4.70;1.38;;;;;;;;;;5137362;27;20106;-69
2021/07/01 15:00:25;;;;;;;4.10;1.45;;;;;;;;;;5137094;27;20467;-70
2021/07/01 15:02:52;;;;;;;6.85;1.25;;;;;;;;;;5136712;27;20470;-69
2021/07/01 15:05:19;;;;;;;9.70;1.80;;;;;;;;;;5136923;27;20027;-68
2021/07/01 15:07:46;;;;;;;6.38;1.95;;;;;;;;;;5118501;27;20479;-70